Time;durP1;ratioP1;P1;durP2;ratioP2;P2;SDS_P1;SDS_P2;PMS_P1;PMS_P2;Temp;Humidity;BMP_temperature;BMP_pressure;BME280_temperature;BME280_humidity;BME280_pressure;Samples;Min_cycle;Max_cycle;Signal;HPM_P1;HPM_P2
2023/10/23 00:01:08;;;;;;;7.53;2.85;;;;;;;;;;4975451;28;95984;-83
2023/10/23 00:03:35;;;;;;;6.00;2.80;;;;;;;;;;4968376;28;93074;-83
2023/10/23 00:06:02;;;;;;;7.00;2.38;;;;;;;;;;4967629;28;92432;-83
2023/10/23 00:08:29;;;;;;;5.68;2.35;;;;;;;;;;4967236;28;97647;-83
2023/10/23 00:10:55;;;;;;;7.70;2.92;;;;;;;;;;4966543;28;93271;-83
2023/10/23 00:13:22;;;;;;;6.57;2.72;;;;;;;;;;4967456;28;92944;-83
2023/10/23 00:15:48;;;;;;;6.85;2.53;;;;;;;;;;4969425;28;93308;-83
2023/10/23 00:18:15;;;;;;;6.82;2.53;;;;;;;;;;4968581;28;93117;-84
2023/10/23 00:20:41;;;;;;;5.13;2.33;;;;;;;;;;4971255;28;92413;-83
2023/10/23 00:23:08;;;;;;;5.18;2.58;;;;;;;;;;4965432;28;95457;-83
2023/10/23 00:25:34;;;;;;;5.25;2.45;;;;;;;;;;4968878;28;93182;-83
2023/10/23 00:28:01;;;;;;;5.55;2.38;;;;;;;;;;4968132;28;93110;-83
2023/10/23 00:30:31;;;;;;;5.93;2.45;;;;;;;;;;4966864;28;93299;-83
2023/10/23 00:32:58;;;;;;;5.38;2.60;;;;;;;;;;4966442;28;92954;-82
2023/10/23 00:35:25;;;;;;;6.60;2.47;;;;;;;;;;4967267;28;93005;-83
2023/10/23 00:37:51;;;;;;;6.40;2.67;;;;;;;;;;4966988;28;93098;-83
2023/10/23 00:40:18;;;;;;;5.22;2.30;;;;;;;;;;4970693;28;92053;-82
2023/10/23 00:42:44;;;;;;;5.38;2.53;;;;;;;;;;4966064;28;95291;-83
2023/10/23 00:45:11;;;;;;;7.40;2.85;;;;;;;;;;4967627;28;93052;-82
2023/10/23 00:47:38;;;;;;;7.75;2.63;;;;;;;;;;4966294;28;94811;-82
2023/10/23 00:50:04;;;;;;;5.80;2.45;;;;;;;;;;4967278;28;93166;-83
2023/10/23 00:52:31;;;;;;;6.68;2.58;;;;;;;;;;4966832;28;92525;-83
2023/10/23 00:54:58;;;;;;;7.28;2.50;;;;;;;;;;4965521;28;100293;-83
2023/10/23 00:57:25;;;;;;;6.45;2.72;;;;;;;;;;4964671;28;94243;-83
2023/10/23 00:59:51;;;;;;;6.32;2.85;;;;;;;;;;4965743;28;92881;-83
2023/10/23 01:02:18;;;;;;;7.28;2.67;;;;;;;;;;4977650;28;92565;-83
2023/10/23 01:04:44;;;;;;;6.72;2.47;;;;;;;;;;4968361;28;91937;-83
2023/10/23 01:07:11;;;;;;;6.30;2.65;;;;;;;;;;4967208;28;92446;-83
2023/10/23 01:09:38;;;;;;;5.93;2.53;;;;;;;;;;4966885;28;93917;-83
2023/10/23 01:12:05;;;;;;;8.27;2.70;;;;;;;;;;4964718;28;95443;-83
2023/10/23 01:14:32;;;;;;;6.25;2.63;;;;;;;;;;4965234;28;98161;-83
2023/10/23 01:16:58;;;;;;;5.57;2.58;;;;;;;;;;4967466;28;93100;-82
2023/10/23 01:19:25;;;;;;;5.75;2.40;;;;;;;;;;4966451;28;92504;-83
2023/10/23 01:21:52;;;;;;;7.25;2.63;;;;;;;;;;4963152;28;92841;-82
2023/10/23 01:24:19;;;;;;;5.57;2.22;;;;;;;;;;4971807;28;93240;-82
2023/10/23 01:26:46;;;;;;;6.15;2.30;;;;;;;;;;4968528;28;95460;-83
2023/10/23 01:29:13;;;;;;;5.97;2.33;;;;;;;;;;4966459;28;94680;-82
2023/10/23 01:31:39;;;;;;;5.57;2.33;;;;;;;;;;4975667;28;92493;-83
2023/10/23 01:34:06;;;;;;;6.57;2.60;;;;;;;;;;4970151;28;92776;-82
2023/10/23 01:36:32;;;;;;;5.97;2.75;;;;;;;;;;4968142;28;95518;-83
2023/10/23 01:38:59;;;;;;;6.97;2.58;;;;;;;;;;4970825;28;92438;-82
2023/10/23 01:41:25;;;;;;;4.60;2.03;;;;;;;;;;4970771;28;93149;-83
2023/10/23 01:43:52;;;;;;;5.35;2.17;;;;;;;;;;4970254;28;93120;-82
2023/10/23 01:46:19;;;;;;;6.07;2.30;;;;;;;;;;4973791;28;92731;-81
2023/10/23 01:48:46;;;;;;;5.45;2.60;;;;;;;;;;4972936;28;93642;-82
2023/10/23 01:51:12;;;;;;;7.18;2.35;;;;;;;;;;4970964;28;92401;-82
2023/10/23 01:53:39;;;;;;;5.78;2.28;;;;;;;;;;4968094;28;93319;-83
2023/10/23 01:56:07;;;;;;;6.28;2.40;;;;;;;;;;4969227;28;93487;-82
2023/10/23 01:58:33;;;;;;;5.80;2.40;;;;;;;;;;4968299;28;92511;-82
2023/10/23 02:01:00;;;;;;;4.95;2.28;;;;;;;;;;4967216;28;95924;-83
2023/10/23 02:03:26;;;;;;;5.47;2.30;;;;;;;;;;4969391;28;93107;-82
2023/10/23 02:05:56;;;;;;;5.40;2.20;;;;;;;;;;4953062;28;92613;-83
2023/10/23 02:08:23;;;;;;;5.53;2.40;;;;;;;;;;4971627;28;92971;-83
2023/10/23 02:10:51;;;;;;;5.43;2.30;;;;;;;;;;4965588;28;93648;-83
2023/10/23 02:13:17;;;;;;;4.90;2.25;;;;;;;;;;4969497;28;92906;-83
2023/10/23 02:15:44;;;;;;;5.38;2.33;;;;;;;;;;4970333;28;93115;-82
2023/10/23 02:18:10;;;;;;;5.80;2.13;;;;;;;;;;4976554;28;91860;-83
2023/10/23 02:20:37;;;;;;;4.53;2.00;;;;;;;;;;4967792;28;93386;-84
2023/10/23 02:23:03;;;;;;;4.90;2.00;;;;;;;;;;4969746;28;93166;-84
2023/10/23 02:25:30;;;;;;;5.72;2.15;;;;;;;;;;4983531;28;96516;-82
2023/10/23 02:27:56;;;;;;;5.22;2.10;;;;;;;;;;4970734;28;98922;-83
2023/10/23 02:30:23;;;;;;;6.15;2.20;;;;;;;;;;4970144;28;92471;-83
2023/10/23 02:32:49;;;;;;;5.47;2.10;;;;;;;;;;4969843;28;92500;-82
2023/10/23 02:35:16;;;;;;;6.22;2.10;;;;;;;;;;4969260;28;93515;-83
2023/10/23 02:37:43;;;;;;;4.57;1.98;;;;;;;;;;4969758;28;92650;-82
2023/10/23 02:40:09;;;;;;;5.57;2.20;;;;;;;;;;4969139;28;92449;-81
2023/10/23 02:42:36;;;;;;;5.80;1.92;;;;;;;;;;4970089;28;93044;-82
2023/10/23 02:45:03;;;;;;;5.13;2.22;;;;;;;;;;4969103;28;92596;-82
2023/10/23 02:47:29;;;;;;;9.90;2.42;;;;;;;;;;4967113;28;95619;-82
2023/10/23 02:49:56;;;;;;;7.15;2.13;;;;;;;;;;4969052;28;98583;-82
2023/10/23 02:52:22;;;;;;;5.35;2.17;;;;;;;;;;4968110;28;95224;-82
2023/10/23 02:54:50;;;;;;;4.65;2.30;;;;;;;;;;4984134;28;95925;-82
2023/10/23 02:57:17;;;;;;;3.85;1.98;;;;;;;;;;4969506;28;93134;-82
2023/10/23 02:59:46;;;;;;;3.95;1.88;;;;;;;;;;4969497;28;93635;-81
2023/10/23 03:02:14;;;;;;;4.28;1.90;;;;;;;;;;4968548;28;93183;-82
2023/10/23 03:04:40;;;;;;;4.53;1.92;;;;;;;;;;4967212;28;92809;-82
2023/10/23 03:07:07;;;;;;;4.20;1.88;;;;;;;;;;4969146;28;93352;-82
2023/10/23 03:09:34;;;;;;;4.65;2.00;;;;;;;;;;4966641;28;96278;-82
2023/10/23 03:12:01;;;;;;;3.65;1.90;;;;;;;;;;4970210;28;92486;-82
2023/10/23 03:14:28;;;;;;;4.53;1.80;;;;;;;;;;4966831;28;100803;-82
2023/10/23 03:16:54;;;;;;;5.20;1.95;;;;;;;;;;4967240;28;94086;-82
2023/10/23 03:19:24;;;;;;;5.25;2.00;;;;;;;;;;4969035;28;92525;-83
2023/10/23 03:21:51;;;;;;;6.07;2.03;;;;;;;;;;4983393;28;94225;-83
2023/10/23 03:24:18;;;;;;;6.18;2.10;;;;;;;;;;4983799;28;93510;-83
2023/10/23 03:26:45;;;;;;;4.97;2.08;;;;;;;;;;4968975;28;92629;-83
2023/10/23 03:29:11;;;;;;;4.88;2.00;;;;;;;;;;4966316;28;95771;-83
2023/10/23 03:31:38;;;;;;;4.05;2.00;;;;;;;;;;4969166;28;92193;-83
2023/10/23 03:34:04;;;;;;;4.05;1.73;;;;;;;;;;4970181;28;94407;-82
2023/10/23 03:36:31;;;;;;;3.97;1.77;;;;;;;;;;4968621;28;92720;-83
2023/10/23 03:38:57;;;;;;;6.15;1.90;;;;;;;;;;4965488;28;96062;-83
2023/10/23 03:41:25;;;;;;;4.35;1.80;;;;;;;;;;4966072;28;94083;-83
2023/10/23 03:43:52;;;;;;;5.30;1.90;;;;;;;;;;4966573;28;92658;-82
2023/10/23 03:46:18;;;;;;;5.10;1.83;;;;;;;;;;4968172;28;93536;-81
2023/10/23 03:48:45;;;;;;;6.35;2.15;;;;;;;;;;4968278;28;93015;-82
2023/10/23 03:51:12;;;;;;;5.03;1.95;;;;;;;;;;4966518;28;92663;-82
2023/10/23 03:53:38;;;;;;;4.57;1.88;;;;;;;;;;4967243;28;93275;-82
2023/10/23 03:56:06;;;;;;;4.78;1.80;;;;;;;;;;4970835;28;92433;-81
2023/10/23 03:58:32;;;;;;;4.75;1.80;;;;;;;;;;4968150;28;92443;-82
2023/10/23 04:00:59;;;;;;;3.47;1.80;;;;;;;;;;4983739;28;93356;-81
2023/10/23 04:03:26;;;;;;;4.00;1.70;;;;;;;;;;4966146;28;94934;-81
2023/10/23 04:05:52;;;;;;;4.80;1.80;;;;;;;;;;4969212;28;95054;-81
2023/10/23 04:08:19;;;;;;;6.65;1.88;;;;;;;;;;4968480;28;92477;-81
2023/10/23 04:10:48;;;;;;;4.07;1.70;;;;;;;;;;4966534;28;92523;-81
2023/10/23 04:13:15;;;;;;;3.88;1.92;;;;;;;;;;4968441;28;92796;-81
2023/10/23 04:15:55;;;;;;;4.10;1.80;;;;;;;;;;4967891;28;92865;-81
2023/10/23 04:18:22;;;;;;;3.70;1.70;;;;;;;;;;4970758;28;92608;-81
2023/10/23 04:20:50;;;;;;;5.30;1.90;;;;;;;;;;4969386;28;92702;-81
2023/10/23 04:23:16;;;;;;;3.70;1.65;;;;;;;;;;4968374;28;92425;-81
2023/10/23 04:25:55;;;;;;;3.38;1.55;;;;;;;;;;4968890;28;93221;-81
2023/10/23 04:28:22;;;;;;;8.73;1.58;;;;;;;;;;4964075;28;98252;-81
2023/10/23 04:30:49;;;;;;;3.90;1.73;;;;;;;;;;4968601;28;92457;-83
2023/10/23 04:33:22;;;;;;;5.55;1.65;;;;;;;;;;4969907;28;92840;-82
2023/10/23 04:35:52;;;;;;;3.38;1.58;;;;;;;;;;4968955;28;93004;-82
2023/10/23 04:38:19;;;;;;;4.00;1.65;;;;;;;;;;4972122;28;92437;-82
2023/10/23 04:40:46;;;;;;;3.72;1.67;;;;;;;;;;4968620;28;93192;-83
2023/10/23 04:43:13;;;;;;;5.82;1.70;;;;;;;;;;4977559;28;92428;-82
2023/10/23 04:45:39;;;;;;;4.72;1.73;;;;;;;;;;4971886;28;91647;-82
2023/10/23 04:48:06;;;;;;;3.78;1.75;;;;;;;;;;4967980;28;93680;-82
2023/10/23 04:50:33;;;;;;;7.07;1.83;;;;;;;;;;4969147;28;92469;-83
2023/10/23 04:53:00;;;;;;;3.60;1.70;;;;;;;;;;4966713;28;95774;-82
2023/10/23 04:55:31;;;;;;;3.40;1.80;;;;;;;;;;4971716;28;94159;-82
2023/10/23 04:57:57;;;;;;;3.97;1.63;;;;;;;;;;4971571;28;92613;-82
2023/10/23 05:00:24;;;;;;;4.32;1.70;;;;;;;;;;4973808;28;92528;-81
2023/10/23 05:02:51;;;;;;;3.40;1.55;;;;;;;;;;4971188;28;93017;-81
2023/10/23 05:05:17;;;;;;;3.75;1.50;;;;;;;;;;4971267;28;92831;-81
2023/10/23 05:07:44;;;;;;;3.25;1.35;;;;;;;;;;4968841;28;96547;-81
2023/10/23 05:10:11;;;;;;;3.70;1.50;;;;;;;;;;4968712;28;91820;-81
2023/10/23 05:12:38;;;;;;;3.60;1.65;;;;;;;;;;4984081;28;92499;-82
2023/10/23 05:15:05;;;;;;;4.00;1.48;;;;;;;;;;4978373;28;92379;-81
2023/10/23 05:17:32;;;;;;;3.88;1.60;;;;;;;;;;4969581;28;94889;-82
2023/10/23 05:19:58;;;;;;;4.90;1.80;;;;;;;;;;4971673;28;95184;-82
2023/10/23 05:22:25;;;;;;;4.00;1.67;;;;;;;;;;4973703;28;93207;-82
2023/10/23 05:24:51;;;;;;;4.13;1.70;;;;;;;;;;4986475;28;95594;-83
2023/10/23 05:27:18;;;;;;;3.78;1.65;;;;;;;;;;4971040;28;93114;-82
2023/10/23 05:29:44;;;;;;;4.97;1.75;;;;;;;;;;4971445;28;92458;-83
2023/10/23 05:32:11;;;;;;;4.65;2.00;;;;;;;;;;4971585;28;94175;-83
2023/10/23 05:34:37;;;;;;;3.45;1.73;;;;;;;;;;4971232;28;92379;-82
2023/10/23 05:37:04;;;;;;;5.70;1.80;;;;;;;;;;4971013;28;93078;-82
2023/10/23 05:39:31;;;;;;;5.95;1.88;;;;;;;;;;4970932;28;92909;-82
2023/10/23 05:41:57;;;;;;;4.45;1.90;;;;;;;;;;4968791;28;96704;-82
2023/10/23 05:44:24;;;;;;;5.57;1.90;;;;;;;;;;4971461;28;92572;-81
2023/10/23 05:46:54;;;;;;;5.85;2.00;;;;;;;;;;4970597;28;93160;-81
2023/10/23 05:49:21;;;;;;;4.35;1.90;;;;;;;;;;4969529;28;92444;-81
2023/10/23 05:51:47;;;;;;;4.07;1.60;;;;;;;;;;4970411;28;92851;-81
2023/10/23 05:54:16;;;;;;;3.20;1.60;;;;;;;;;;4970424;28;93259;-82
2023/10/23 05:56:46;;;;;;;5.22;1.92;;;;;;;;;;4970838;28;93033;-81
2023/10/23 05:59:12;;;;;;;3.45;1.77;;;;;;;;;;4970885;28;92807;-82
2023/10/23 06:01:39;;;;;;;4.53;1.85;;;;;;;;;;4970849;28;93665;-82
2023/10/23 06:04:05;;;;;;;4.75;1.98;;;;;;;;;;4963597;28;92789;-81
2023/10/23 06:06:32;;;;;;;5.35;2.10;;;;;;;;;;4972028;28;95734;-81
2023/10/23 06:08:59;;;;;;;4.90;2.15;;;;;;;;;;4970987;28;92882;-81
2023/10/23 06:11:26;;;;;;;7.47;2.20;;;;;;;;;;4970900;28;93078;-81
2023/10/23 06:13:52;;;;;;;4.80;1.92;;;;;;;;;;4970260;28;93632;-81
2023/10/23 06:16:19;;;;;;;4.72;2.17;;;;;;;;;;4970216;28;92891;-81
2023/10/23 06:18:46;;;;;;;6.90;2.00;;;;;;;;;;4970012;28;92899;-80
2023/10/23 06:21:12;;;;;;;4.75;1.77;;;;;;;;;;4969396;28;93082;-81
2023/10/23 06:23:39;;;;;;;5.60;2.22;;;;;;;;;;4974629;28;91798;-82
2023/10/23 06:26:06;;;;;;;6.38;2.10;;;;;;;;;;4965912;28;92479;-80
2023/10/23 06:28:33;;;;;;;5.53;2.10;;;;;;;;;;4971458;28;95788;-80
2023/10/23 06:31:04;;;;;;;7.38;2.30;;;;;;;;;;4966538;28;95353;-80
2023/10/23 06:33:30;;;;;;;6.20;2.03;;;;;;;;;;4969965;28;93055;-81
2023/10/23 06:35:58;;;;;;;5.07;2.03;;;;;;;;;;4970135;28;92552;-82
2023/10/23 06:38:25;;;;;;;5.97;2.30;;;;;;;;;;4970350;28;93296;-81
2023/10/23 06:40:51;;;;;;;7.53;2.10;;;;;;;;;;4968653;28;93093;-82
2023/10/23 06:43:18;;;;;;;7.85;2.40;;;;;;;;;;4969035;28;93022;-82
2023/10/23 06:45:48;;;;;;;6.05;2.17;;;;;;;;;;4970292;28;92852;-81
2023/10/23 06:48:28;;;;;;;7.18;2.40;;;;;;;;;;4979356;28;98606;-82
2023/10/23 06:50:55;;;;;;;5.72;2.10;;;;;;;;;;4972332;28;94393;-82
2023/10/23 06:53:21;;;;;;;6.22;2.47;;;;;;;;;;4969813;28;93183;-84
2023/10/23 06:55:48;;;;;;;5.97;2.25;;;;;;;;;;4970011;28;94921;-82
2023/10/23 06:58:15;;;;;;;6.57;2.28;;;;;;;;;;4974590;28;96429;-82
2023/10/23 07:00:42;;;;;;;4.70;2.08;;;;;;;;;;4975400;28;93843;-82
2023/10/23 07:03:08;;;;;;;5.30;2.17;;;;;;;;;;4978522;28;93317;-82
2023/10/23 07:05:35;;;;;;;5.93;2.53;;;;;;;;;;4977873;28;93116;-82
2023/10/23 07:08:03;;;;;;;7.70;2.38;;;;;;;;;;4978211;28;93491;-82
2023/10/23 07:10:32;;;;;;;6.15;2.40;;;;;;;;;;4985523;28;92922;-82
2023/10/23 07:12:59;;;;;;;9.35;2.50;;;;;;;;;;4983777;28;92209;-82
2023/10/23 07:15:38;;;;;;;5.85;2.40;;;;;;;;;;4976225;28;92322;-82
2023/10/23 07:18:05;;;;;;;7.43;2.42;;;;;;;;;;4982549;28;92742;-82
2023/10/23 07:20:32;;;;;;;4.82;2.28;;;;;;;;;;4978932;28;95999;-81
2023/10/23 07:22:59;;;;;;;6.82;2.55;;;;;;;;;;4978801;28;92662;-81
2023/10/23 07:25:25;;;;;;;8.23;2.75;;;;;;;;;;4975300;28;94394;-83
2023/10/23 07:27:52;;;;;;;7.05;2.35;;;;;;;;;;4986694;28;92479;-83
2023/10/23 07:30:18;;;;;;;5.20;2.30;;;;;;;;;;4971959;28;92529;-83
2023/10/23 07:32:47;;;;;;;5.05;2.40;;;;;;;;;;4973225;28;92691;-83
2023/10/23 07:35:14;;;;;;;6.47;2.53;;;;;;;;;;4969849;28;93442;-83
2023/10/23 07:37:40;;;;;;;4.97;2.28;;;;;;;;;;4984741;28;92607;-81
2023/10/23 07:40:07;;;;;;;5.97;2.30;;;;;;;;;;4971543;28;94584;-83
2023/10/23 07:42:34;;;;;;;5.80;2.40;;;;;;;;;;4970158;28;92471;-82
2023/10/23 07:45:00;;;;;;;6.00;2.35;;;;;;;;;;4968809;28;95647;-83
2023/10/23 07:47:28;;;;;;;7.00;2.47;;;;;;;;;;4968047;28;93134;-83
2023/10/23 07:49:55;;;;;;;;;;;;;;;;;;4968860;28;93052;-83
2023/10/23 07:52:21;;;;;;;5.50;2.33;;;;;;;;;;4968308;28;106335;-83
2023/10/23 07:54:48;;;;;;;5.55;2.20;;;;;;;;;;4971791;28;93796;-83
2023/10/23 07:57:16;;;;;;;5.13;2.40;;;;;;;;;;4968659;28;92999;-82
2023/10/23 07:59:42;;;;;;;5.07;2.30;;;;;;;;;;4968453;28;94257;-82
2023/10/23 08:02:09;;;;;;;4.95;2.08;;;;;;;;;;4969135;28;91792;-82
2023/10/23 08:04:36;;;;;;;4.95;2.30;;;;;;;;;;4984272;28;93266;-83
2023/10/23 08:07:03;;;;;;;5.75;2.60;;;;;;;;;;4965764;28;94345;-83
2023/10/23 08:09:29;;;;;;;6.20;2.45;;;;;;;;;;4965918;28;95342;-82
2023/10/23 08:11:56;;;;;;;6.13;2.50;;;;;;;;;;4966065;28;97954;-83
2023/10/23 08:14:22;;;;;;;5.93;2.50;;;;;;;;;;4966538;28;92995;-83
2023/10/23 08:16:52;;;;;;;5.30;2.42;;;;;;;;;;4971518;28;92475;-83
2023/10/23 08:19:19;;;;;;;5.50;2.20;;;;;;;;;;4965975;28;96106;-82
2023/10/23 08:21:46;;;;;;;6.15;2.50;;;;;;;;;;4967085;28;92644;-82
2023/10/23 08:24:13;;;;;;;5.18;2.38;;;;;;;;;;4967790;28;92734;-83
2023/10/23 08:26:40;;;;;;;5.43;2.35;;;;;;;;;;4970831;28;93210;-82
2023/10/23 08:29:07;;;;;;;5.60;2.45;;;;;;;;;;4969081;28;93791;-83
2023/10/23 08:31:33;;;;;;;6.20;2.65;;;;;;;;;;4970259;28;96036;-83
2023/10/23 08:34:07;;;;;;;6.35;2.50;;;;;;;;;;4970072;28;95363;-82
2023/10/23 08:36:34;;;;;;;4.50;2.22;;;;;;;;;;4970689;28;92903;-82
2023/10/23 08:39:01;;;;;;;5.57;2.70;;;;;;;;;;4970366;28;93448;-82
2023/10/23 08:41:28;;;;;;;6.10;2.80;;;;;;;;;;4965052;28;92598;-82
2023/10/23 08:43:55;;;;;;;6.63;2.85;;;;;;;;;;4974643;28;92485;-81
2023/10/23 08:46:26;;;;;;;5.78;2.42;;;;;;;;;;4970837;28;93051;-82
2023/10/23 08:48:53;;;;;;;5.75;2.55;;;;;;;;;;4971984;28;95472;-82
2023/10/23 08:51:20;;;;;;;5.10;2.42;;;;;;;;;;4974934;28;95615;-82
2023/10/23 08:53:54;;;;;;;5.45;2.60;;;;;;;;;;4971115;28;93999;-83
2023/10/23 08:56:39;;;;;;;6.55;3.00;;;;;;;;;;4969980;28;93527;-83
2023/10/23 08:59:08;;;;;;;5.38;2.60;;;;;;;;;;4972920;28;95151;-83
2023/10/23 09:01:34;;;;;;;6.38;2.60;;;;;;;;;;4970013;28;92566;-83
2023/10/23 09:04:03;;;;;;;5.57;3.00;;;;;;;;;;4969408;28;96020;-80
2023/10/23 09:06:38;;;;;;;5.53;2.65;;;;;;;;;;4970493;28;94318;-82
2023/10/23 09:09:05;;;;;;;6.55;2.90;;;;;;;;;;4968923;28;92872;-83
2023/10/23 09:15:24;;;;;;;7.38;2.92;;;;;;;;;;4970535;28;97482;-82
2023/10/23 09:17:51;;;;;;;7.13;2.90;;;;;;;;;;4971584;28;92177;-82
2023/10/23 09:20:24;;;;;;;5.82;2.75;;;;;;;;;;4972019;28;93533;-82
2023/10/23 09:22:54;;;;;;;6.40;2.88;;;;;;;;;;4971366;28;93103;-83
2023/10/23 09:25:24;;;;;;;6.85;2.85;;;;;;;;;;4970910;28;95427;-82
2023/10/23 09:27:51;;;;;;;6.30;3.00;;;;;;;;;;4972285;28;93072;-82
2023/10/23 09:30:24;;;;;;;6.68;2.75;;;;;;;;;;4974335;28;93706;-82
2023/10/23 09:32:51;;;;;;;6.57;2.85;;;;;;;;;;4972683;28;92545;-81
2023/10/23 09:35:19;;;;;;;6.10;2.70;;;;;;;;;;4964008;28;93392;-82
2023/10/23 09:37:45;;;;;;;6.47;3.03;;;;;;;;;;4957813;28;92488;-81
2023/10/23 09:40:12;;;;;;;7.22;3.13;;;;;;;;;;4968568;28;92980;-81
2023/10/23 09:42:40;;;;;;;7.07;3.10;;;;;;;;;;4962740;28;92896;-81
2023/10/23 09:45:07;;;;;;;7.63;3.38;;;;;;;;;;4972476;28;92955;-82
2023/10/23 09:47:35;;;;;;;7.57;3.50;;;;;;;;;;4970420;28;92461;-82
2023/10/23 09:50:03;;;;;;;6.97;3.30;;;;;;;;;;4968470;28;94974;-82
2023/10/23 09:52:34;;;;;;;6.70;3.13;;;;;;;;;;4954291;28;99793;-83
2023/10/23 09:55:03;;;;;;;6.55;3.05;;;;;;;;;;4973882;28;93217;-82
2023/10/23 09:57:37;;;;;;;7.75;3.55;;;;;;;;;;4971015;28;92506;-81
2023/10/23 10:00:12;;;;;;;8.13;3.63;;;;;;;;;;4971632;28;92518;-82
2023/10/23 10:02:48;;;;;;;9.27;3.63;;;;;;;;;;4970469;28;92843;-82
2023/10/23 10:05:27;;;;;;;6.80;3.00;;;;;;;;;;4955978;28;92893;-83
2023/10/23 10:07:54;;;;;;;7.78;3.40;;;;;;;;;;4972026;28;96005;-83
2023/10/23 10:10:20;;;;;;;7.05;3.33;;;;;;;;;;4967880;28;93641;-81
2023/10/23 10:12:48;;;;;;;6.63;3.30;;;;;;;;;;4976444;28;92930;-81
2023/10/23 10:15:15;;;;;;;;;;;;;;;;;;4969177;28;95419;-81
2023/10/23 10:17:41;;;;;;;7.57;3.30;;;;;;;;;;4971776;28;92562;-81
2023/10/23 10:20:11;;;;;;;7.70;3.50;;;;;;;;;;4970361;28;92870;-80
2023/10/23 10:22:39;;;;;;;8.13;4.05;;;;;;;;;;4970020;28;93013;-81
2023/10/23 10:25:07;;;;;;;8.27;3.72;;;;;;;;;;4969132;28;92902;-81
2023/10/23 10:27:34;;;;;;;8.32;3.67;;;;;;;;;;4971117;28;92728;-81
2023/10/23 10:30:05;;;;;;;7.70;3.60;;;;;;;;;;4972370;28;93006;-80
2023/10/23 10:32:35;;;;;;;8.27;3.42;;;;;;;;;;4972765;28;97307;-80
2023/10/23 10:35:26;;;;;;;8.48;3.60;;;;;;;;;;4995818;28;92956;-81
2023/10/23 10:38:12;;;;;;;7.47;3.50;;;;;;;;;;4971107;28;94242;-81
2023/10/23 10:40:57;;;;;;;8.85;3.30;;;;;;;;;;4972716;28;94982;-81
2023/10/23 10:43:25;;;;;;;7.30;3.50;;;;;;;;;;4958003;28;93014;-81
2023/10/23 10:45:51;;;;;;;;;;;;;;;;;;4963978;28;92828;-80
2023/10/23 10:48:18;;;;;;;7.97;3.50;;;;;;;;;;4951494;28;92952;-82
2023/10/23 10:50:46;;;;;;;7.00;3.22;;;;;;;;;;4950479;28;93531;-81
2023/10/23 10:53:13;;;;;;;7.88;3.70;;;;;;;;;;4952449;28;92419;-81
2023/10/23 10:55:42;;;;;;;16.05;3.75;;;;;;;;;;4965188;28;93564;-80
2023/10/23 10:58:09;;;;;;;8.70;3.40;;;;;;;;;;4974548;28;92178;-81
2023/10/23 11:00:37;;;;;;;7.53;3.22;;;;;;;;;;4972469;28;92496;-81
2023/10/23 11:03:05;;;;;;;8.10;3.08;;;;;;;;;;4971157;28;93936;-82
2023/10/23 11:05:32;;;;;;;6.85;2.90;;;;;;;;;;4954873;28;94820;-80
2023/10/23 11:07:59;;;;;;;7.55;3.28;;;;;;;;;;4968479;28;95188;-81
2023/10/23 11:10:26;;;;;;;7.43;3.10;;;;;;;;;;4972473;28;93312;-81
2023/10/23 11:12:52;;;;;;;6.97;3.10;;;;;;;;;;4971698;28;92465;-81
2023/10/23 11:15:19;;;;;;;6.60;3.05;;;;;;;;;;4968893;28;93241;-80
2023/10/23 11:17:46;;;;;;;7.63;3.22;;;;;;;;;;4968760;28;92496;-80
2023/10/23 11:20:13;;;;;;;7.30;3.13;;;;;;;;;;4960591;28;92776;-81
2023/10/23 11:22:43;;;;;;;7.07;2.80;;;;;;;;;;4967291;28;95182;-81
2023/10/23 11:25:11;;;;;;;7.63;3.25;;;;;;;;;;4969036;28;92999;-81
2023/10/23 11:27:37;;;;;;;;;;;;;;;;;;4957826;28;93031;-80
2023/10/23 11:30:05;;;;;;;5.97;3.13;;;;;;;;;;4956558;28;106387;-80
2023/10/23 11:32:32;;;;;;;6.07;2.80;;;;;;;;;;4967370;28;92536;-80
2023/10/23 11:35:00;;;;;;;7.45;3.10;;;;;;;;;;4968861;28;93050;-80
2023/10/23 11:37:27;;;;;;;6.93;2.90;;;;;;;;;;4968818;28;93315;-80
2023/10/23 11:39:56;;;;;;;6.38;2.90;;;;;;;;;;4967593;28;92372;-80
2023/10/23 11:42:23;;;;;;;6.15;3.00;;;;;;;;;;4966883;28;99983;-80
2023/10/23 11:44:49;;;;;;;6.22;2.72;;;;;;;;;;4967856;28;92453;-81
2023/10/23 11:47:16;;;;;;;6.20;2.80;;;;;;;;;;4961544;28;95416;-80
2023/10/23 11:49:47;;;;;;;6.40;2.90;;;;;;;;;;4967670;28;93129;-80
2023/10/23 11:52:14;;;;;;;6.80;3.08;;;;;;;;;;4964703;28;92672;-80
2023/10/23 11:54:41;;;;;;;6.85;2.83;;;;;;;;;;4966221;28;95419;-80
2023/10/23 11:57:08;;;;;;;6.45;2.75;;;;;;;;;;4970643;28;93091;-80
2023/10/23 11:59:35;;;;;;;;;;;;;;;;;;4968226;28;92465;-81
2023/10/23 12:02:02;;;;;;;7.45;2.78;;;;;;;;;;4966253;28;110745;-81
2023/10/23 12:04:35;;;;;;;5.60;2.60;;;;;;;;;;4964120;28;92919;-81
2023/10/23 12:07:04;;;;;;;7.32;2.80;;;;;;;;;;4965014;28;92623;-80
2023/10/23 12:09:31;;;;;;;5.85;2.75;;;;;;;;;;4965168;28;94084;-80
2023/10/23 12:11:58;;;;;;;5.95;2.72;;;;;;;;;;4967916;28;91789;-80
2023/10/23 12:14:24;;;;;;;5.90;2.78;;;;;;;;;;4966220;28;93172;-80
2023/10/23 12:16:51;;;;;;;6.97;2.92;;;;;;;;;;4967328;28;93031;-80
2023/10/23 12:19:19;;;;;;;6.10;3.00;;;;;;;;;;4964714;28;95371;-81
2023/10/23 12:21:45;;;;;;;6.25;2.90;;;;;;;;;;4965447;28;96495;-81
2023/10/23 12:24:12;;;;;;;6.95;2.63;;;;;;;;;;4964402;28;92856;-80
2023/10/23 12:26:38;;;;;;;6.18;3.00;;;;;;;;;;4968171;28;93252;-80
2023/10/23 12:29:07;;;;;;;6.22;2.70;;;;;;;;;;4967950;28;93240;-80
2023/10/23 12:31:33;;;;;;;6.35;3.00;;;;;;;;;;4967262;28;92531;-80
2023/10/23 12:34:20;;;;;;;5.35;2.50;;;;;;;;;;4964533;28;92585;-80
2023/10/23 12:36:47;;;;;;;6.43;3.00;;;;;;;;;;4967381;28;92230;-79
2023/10/23 12:39:13;;;;;;;6.40;2.70;;;;;;;;;;4968413;28;92841;-81
2023/10/23 12:41:40;;;;;;;9.98;3.00;;;;;;;;;;4967763;28;93303;-80
2023/10/23 12:44:06;;;;;;;6.25;2.80;;;;;;;;;;4965349;28;95178;-80
2023/10/23 12:46:33;;;;;;;7.00;2.70;;;;;;;;;;4965087;28;97300;-81
2023/10/23 12:49:01;;;;;;;6.18;2.75;;;;;;;;;;4965159;28;93064;-81
2023/10/23 12:51:28;;;;;;;5.68;2.50;;;;;;;;;;4966497;28;92671;-81
2023/10/23 12:53:54;;;;;;;6.22;2.63;;;;;;;;;;4967860;28;92809;-81
2023/10/23 12:56:21;;;;;;;5.57;2.38;;;;;;;;;;4947728;28;93522;-81
2023/10/23 12:58:48;;;;;;;6.55;2.65;;;;;;;;;;4962140;28;92727;-81
2023/10/23 13:01:14;;;;;;;6.47;2.53;;;;;;;;;;4961929;28;93270;-79
2023/10/23 13:03:41;;;;;;;6.03;2.60;;;;;;;;;;4956071;28;92780;-80
2023/10/23 13:06:08;;;;;;;5.88;2.65;;;;;;;;;;4959247;28;92659;-80
2023/10/23 13:08:34;;;;;;;6.00;2.55;;;;;;;;;;4954996;28;95440;-81
2023/10/23 13:11:01;;;;;;;5.35;2.50;;;;;;;;;;4972863;28;92650;-80
2023/10/23 13:13:28;;;;;;;5.57;2.53;;;;;;;;;;4949147;28;95004;-81
2023/10/23 13:15:54;;;;;;;6.60;2.80;;;;;;;;;;4952160;28;93091;-81
2023/10/23 13:18:21;;;;;;;5.85;2.88;;;;;;;;;;4951407;28;92657;-81
2023/10/23 13:20:48;;;;;;;5.40;2.30;;;;;;;;;;4975736;28;94094;-80
2023/10/23 13:23:34;;;;;;;6.43;2.78;;;;;;;;;;4973355;28;93107;-81
2023/10/23 13:26:01;;;;;;;6.05;2.83;;;;;;;;;;4962138;28;92749;-80
2023/10/23 13:28:39;;;;;;;5.57;2.53;;;;;;;;;;4982809;28;97515;-80
2023/10/23 13:31:06;;;;;;;6.57;2.70;;;;;;;;;;4965782;28;92554;-81
2023/10/23 13:33:33;;;;;;;6.60;2.85;;;;;;;;;;4968468;28;95176;-80
2023/10/23 13:35:59;;;;;;;6.78;2.50;;;;;;;;;;4957274;28;93109;-80
2023/10/23 13:38:26;;;;;;;7.00;2.80;;;;;;;;;;4970546;28;92571;-80
2023/10/23 13:40:52;;;;;;;6.80;3.08;;;;;;;;;;4952217;28;92836;-81
2023/10/23 13:43:19;;;;;;;6.25;2.70;;;;;;;;;;4962428;28;93664;-81
2023/10/23 13:45:46;;;;;;;6.25;2.80;;;;;;;;;;4952665;28;92921;-80
2023/10/23 13:48:12;;;;;;;5.25;2.40;;;;;;;;;;4957167;28;93195;-80
2023/10/23 13:50:40;;;;;;;6.40;3.00;;;;;;;;;;4952083;28;92287;-80
2023/10/23 13:53:07;;;;;;;6.15;2.92;;;;;;;;;;4964651;28;92577;-81
2023/10/23 13:55:34;;;;;;;7.28;3.05;;;;;;;;;;4951123;28;93427;-82
2023/10/23 13:58:01;;;;;;;9.43;3.00;;;;;;;;;;4952212;28;94944;-82
2023/10/23 14:00:28;;;;;;;7.35;2.90;;;;;;;;;;4960197;28;95053;-83
2023/10/23 14:02:54;;;;;;;6.93;2.72;;;;;;;;;;4968443;28;93072;-82
2023/10/23 14:05:21;;;;;;;7.93;2.90;;;;;;;;;;4951153;28;92513;-82
2023/10/23 14:07:47;;;;;;;6.60;2.97;;;;;;;;;;4960594;28;96124;-81
2023/10/23 14:10:14;;;;;;;8.00;2.80;;;;;;;;;;4963877;28;92463;-82
2023/10/23 14:12:50;;;;;;;8.63;2.65;;;;;;;;;;4949317;28;92871;-84
2023/10/23 14:15:17;;;;;;;7.75;2.65;;;;;;;;;;4961549;28;92749;-83
2023/10/23 14:17:44;;;;;;;6.72;2.65;;;;;;;;;;4971795;28;92841;-81
2023/10/23 14:20:11;;;;;;;6.95;2.65;;;;;;;;;;4970876;28;92590;-84
2023/10/23 14:22:40;;;;;;;7.50;2.80;;;;;;;;;;4966273;28;95452;-82
2023/10/23 14:25:08;;;;;;;6.55;2.70;;;;;;;;;;4964522;28;92641;-82
2023/10/23 14:27:38;;;;;;;8.52;2.67;;;;;;;;;;4961385;28;93950;-81
2023/10/23 14:30:07;;;;;;;7.20;2.63;;;;;;;;;;4968309;28;93483;-82
2023/10/23 14:32:35;;;;;;;7.45;3.00;;;;;;;;;;4958631;28;92753;-81
2023/10/23 14:35:02;;;;;;;8.27;2.65;;;;;;;;;;4968518;28;92508;-82
2023/10/23 14:37:29;;;;;;;6.25;2.63;;;;;;;;;;4970933;28;92444;-82
2023/10/23 14:39:56;;;;;;;9.70;3.15;;;;;;;;;;4970208;28;95228;-83
2023/10/23 14:42:25;;;;;;;9.88;3.92;;;;;;;;;;4967270;28;92979;-83
2023/10/23 14:44:51;;;;;;;11.25;4.90;;;;;;;;;;4971363;28;93031;-82
2023/10/23 14:47:18;;;;;;;11.18;4.88;;;;;;;;;;4968439;28;95391;-82
2023/10/23 14:49:44;;;;;;;13.32;5.65;;;;;;;;;;4970379;28;94634;-82